This is the latest recevied weather packets stored in our database for station/object N4XWC. If no packets are shown the sender has not sent any weather packets the latest 1 day(s).
| Time | Temp. | Humidity | Pressure | Rain* | Wind** | Luminosity | Snow |
|---|---|---|---|---|---|---|---|
| 1778004912 | 22.22° C | 65% | 1013.6 hPa | 0 mm | 0.89 m/s, 174° | - | - |
| 1778004733 | 22.22° C | 66% | 1013.8 hPa | 0 mm | 0 m/s | - | - |
| 1778004610 | 22.22° C | 64% | 1013.8 hPa | 0 mm | 0 m/s | - | - |
| 1778004311 | 22.22° C | 63% | 1013.8 hPa | 0 mm | 0 m/s | - | - |
| 1778004135 | 22.22° C | 64% | 1013.8 hPa | 0 mm | 1.34 m/s, 247° | - | - |
| 1778003984 | 22.22° C | 65% | 1013.8 hPa | 0 mm | 0.89 m/s, 256° | - | - |
| 1778003684 | 22.22° C | 64% | 1013.8 hPa | 0 mm | 0.45 m/s, 186° | - | - |
| 1778003535 | 22.22° C | 63% | 1013.8 hPa | 0 mm | 0 m/s | - | - |
| 1778003385 | 22.22° C | 62% | 1013.8 hPa | 0 mm | 0 m/s | - | - |
| 1778003083 | 22.22° C | 64% | 1014 hPa | 0 mm | 0 m/s | - | - |
| 1778002935 | 22.22° C | 62% | 1014 hPa | 0 mm | 0.45 m/s, 203° | - | - |
| 1778002784 | 22.22° C | 64% | 1014 hPa | 0 mm | 1.34 m/s, 229° | - | - |
| 1778002484 | 22.22° C | 62% | 1014 hPa | 0 mm | 0.45 m/s, 195° | - | - |
| 1778002335 | 22.22° C | 62% | 1014 hPa | 0 mm | 0.89 m/s, 226° | - | - |
| 1778002184 | 22.22° C | 64% | 1014.1 hPa | 0 mm | 0.89 m/s, 209° | - | - |
| 1778001884 | 22.22° C | 62% | 1014.1 hPa | 0 mm | 0.45 m/s, 182° | - | - |
| 1778001735 | 22.22° C | 61% | 1014.1 hPa | 0 mm | 2.68 m/s, 272° | - | - |
| 1778001584 | 22.22° C | 61% | 1014.1 hPa | 0 mm | 0.45 m/s, 209° | - | - |
| 1778001283 | 22.22° C | 63% | 1014.1 hPa | 0 mm | 3.58 m/s, 240° | - | - |
| 1778001134 | 22.22° C | 64% | 1014.1 hPa | 0 mm | 0.89 m/s, 127° | - | - |
| 1778000984 | 22.22° C | 62% | 1014.1 hPa | 0 mm | 0.45 m/s, 212° | - | - |
| 1778000684 | 22.22° C | 63% | 1014.1 hPa | 0 mm | 0.45 m/s, 172° | - | - |
| 1778000533 | 22.22° C | 61% | 1014.1 hPa | 0 mm | 2.68 m/s, 256° | - | - |
| 1778000383 | 22.22° C | 62% | 1014.3 hPa | 0 mm | 0.89 m/s, 215° | - | - |
| 1778000084 | 22.22° C | 62% | 1014.3 hPa | 0 mm | 1.34 m/s, 40° | - | - |
* Rain latest hour (hover to see other rain measurements)
** Current wind speed in m/s (hover to see current wind gust speed)